PWSweather.com
Personal Weather Stations
Station Observations
KWIATHEL1
Marinette County, Athelstane, WI 54104

Marinette CountyAthelstane, WI 54104

Lat: 45.4, Lon: -88.12

Elevation: 960

Station Type: Acurite 5in1 Pro

http://weather.athelstanewi.com

Latest ConditionsUpdated 8:40:00 PM CST Monday, Jan 16, 2017
Currently Today's Max Today's Min Today's Average
Temperature 20.7°F-6.3°C 35.1°F1.7°C 5.0°F-15.0°C 19.2°F-7.1°C
Dew Point 18.2°F-7.7°C 22.5°F-5.3°C 3.9°F-15.6°C 13.8°F-10.1°C
Winds Calm Calm 2.3 mph NNE3.7 kmh NNE - 0.2 mph 0.3 kmh
Wind Gusts -- 4.6 mph7.4 kmh - -
Humidity 90% 96% 56% 81%
Pressure 30.10 in1019.3 mb 30.29 in1025.7 mb 30.10 in1019.3 mb -
Hour Temp Dew Point Humidity Winds Wind Gusts Pressure Precip Precip Rate Daily Precip Total
08:40 PM 20.7°F-6.3°C 18.2°F-7.7°C 90% Calm Calm -- 30.10 in1019.3 mb - 0.00 in0.0 mm 0.00 in0.0 mm
08:35 PM 20.7°F-6.3°C 18.2°F-7.7°C 90% Calm Calm -- 30.11 in1019.6 mb - 0.00 in0.0 mm 0.00 in0.0 mm
08:30 PM 20.7°F-6.3°C 18.2°F-7.7°C 90% Calm Calm -- 30.10 in1019.3 mb - 0.00 in0.0 mm 0.00 in0.0 mm
08:25 PM 20.7°F-6.3°C 18.2°F-7.7°C 90% Calm Calm -- 30.11 in1019.6 mb - 0.00 in0.0 mm 0.00 in0.0 mm
08:20 PM 20.7°F-6.3°C 18.2°F-7.7°C 90% Calm Calm -- 30.11 in1019.6 mb - 0.00 in0.0 mm 0.00 in0.0 mm
08:15 PM 20.7°F-6.3°C 17.7°F-7.9°C 88% Calm Calm -- 30.11 in1019.6 mb - 0.00 in0.0 mm 0.00 in0.0 mm
08:10 PM 20.7°F-6.3°C 17.9°F-7.8°C 89% Calm Calm -- 30.11 in1019.6 mb - 0.00 in0.0 mm 0.00 in0.0 mm
08:00 PM 20.7°F-6.3°C 17.9°F-7.8°C 89% Calm Calm -- 30.12 in1020.0 mb - 0.00 in0.0 mm 0.00 in0.0 mm
07:55 PM 20.7°F-6.3°C 17.7°F-7.9°C 88% Calm Calm -- 30.12 in1020.0 mb - 0.00 in0.0 mm 0.00 in0.0 mm
07:50 PM 20.8°F-6.2°C 17.8°F-7.9°C 88% Calm Calm -- 30.13 in1020.3 mb - 0.00 in0.0 mm 0.00 in0.0 mm
07:45 PM 20.8°F-6.2°C 17.8°F-7.9°C 88% Calm Calm -- 30.13 in1020.3 mb - 0.00 in0.0 mm 0.00 in0.0 mm
07:40 PM 21.2°F-6.0°C 18.2°F-7.7°C 88% Calm Calm -- 30.13 in1020.3 mb - 0.00 in0.0 mm 0.00 in0.0 mm
07:35 PM 21.4°F-5.9°C 18.4°F-7.6°C 88% Calm Calm -- 30.13 in1020.3 mb - 0.00 in0.0 mm 0.00 in0.0 mm
07:30 PM 21.6°F-5.8°C 18.0°F-7.8°C 86% Calm Calm -- 30.13 in1020.3 mb - 0.00 in0.0 mm 0.00 in0.0 mm
07:25 PM 21.9°F-5.6°C 18.4°F-7.6°C 86% Calm Calm -- 30.14 in1020.7 mb - 0.00 in0.0 mm 0.00 in0.0 mm
07:20 PM 22.1°F-5.5°C 18.6°F-7.4°C 86% Calm Calm -- 30.14 in1020.7 mb - 0.00 in0.0 mm 0.00 in0.0 mm
07:15 PM 22.3°F-5.4°C 18.7°F-7.4°C 86% Calm Calm -- 30.14 in1020.7 mb - 0.00 in0.0 mm 0.00 in0.0 mm
07:10 PM 22.5°F-5.3°C 18.9°F-7.3°C 86% Calm Calm -- 30.14 in1020.7 mb - 0.00 in0.0 mm 0.00 in0.0 mm
07:00 PM 23.1°F-4.9°C 19.0°F-7.2°C 84% Calm Calm -- 30.14 in1020.7 mb - 0.00 in0.0 mm 0.00 in0.0 mm
06:55 PM 23.4°F-4.8°C 19.0°F-7.2°C 83% Calm Calm -- 30.14 in1020.7 mb - 0.00 in0.0 mm 0.00 in0.0 mm
06:50 PM 23.7°F-4.6°C 19.3°F-7.1°C 83% Calm Calm -- 30.14 in1020.7 mb - 0.00 in0.0 mm 0.00 in0.0 mm
06:45 PM 24.1°F-4.4°C 19.1°F-7.2°C 81% Calm Calm -- 30.14 in1020.7 mb - 0.00 in0.0 mm 0.00 in0.0 mm
06:40 PM 24.4°F-4.2°C 20.0°F-6.7°C 83% Calm Calm -- 30.14 in1020.7 mb - 0.00 in0.0 mm 0.00 in0.0 mm
06:35 PM 24.7°F-4.1°C 19.7°F-6.8°C 81% Calm Calm -- 30.14 in1020.7 mb - 0.00 in0.0 mm 0.00 in0.0 mm
06:30 PM 25.0°F-3.9°C 20.0°F-6.7°C 81% Calm Calm -- 30.14 in1020.7 mb - 0.00 in0.0 mm 0.00 in0.0 mm
06:25 PM 25.2°F-3.8°C 20.1°F-6.6°C 81% Calm Calm -- 30.15 in1021.0 mb - 0.00 in0.0 mm 0.00 in0.0 mm
06:20 PM 25.2°F-3.8°C 20.1°F-6.6°C 81% Calm Calm -- 30.15 in1021.0 mb - 0.00 in0.0 mm 0.00 in0.0 mm
06:15 PM 25.3°F-3.7°C 20.0°F-6.7°C 80% Calm Calm -- 30.15 in1021.0 mb - 0.00 in0.0 mm 0.00 in0.0 mm
06:10 PM 25.4°F-3.7°C 20.1°F-6.6°C 80% Calm Calm -- 30.15 in1021.0 mb - 0.00 in0.0 mm 0.00 in0.0 mm
06:00 PM 25.9°F-3.4°C 20.3°F-6.5°C 79% Calm Calm -- 30.15 in1021.0 mb - 0.00 in0.0 mm 0.00 in0.0 mm
05:55 PM 25.9°F-3.4°C 20.3°F-6.5°C 79% Calm Calm -- 30.15 in1021.0 mb - 0.00 in0.0 mm 0.00 in0.0 mm
05:50 PM 25.9°F-3.4°C 20.3°F-6.5°C 79% Calm Calm -- 30.15 in1021.0 mb - 0.00 in0.0 mm 0.00 in0.0 mm
05:45 PM 25.9°F-3.4°C 20.0°F-6.7°C 78% Calm Calm -- 30.15 in1021.0 mb - 0.00 in0.0 mm 0.00 in0.0 mm
05:40 PM 26.1°F-3.3°C 20.1°F-6.6°C 78% Calm Calm -- 30.15 in1021.0 mb - 0.00 in0.0 mm 0.00 in0.0 mm
05:35 PM 26.2°F-3.2°C 20.3°F-6.5°C 78% Calm Calm 1.2 mph1.9 kmh 30.14 in1020.7 mb - 0.00 in0.0 mm 0.00 in0.0 mm
05:30 PM 26.2°F-3.2°C 20.3°F-6.5°C 78% Calm Calm -- 30.15 in1021.0 mb - 0.00 in0.0 mm 0.00 in0.0 mm
05:25 PM 26.2°F-3.2°C 20.3°F-6.5°C 78% Calm Calm -- 30.15 in1021.0 mb - 0.00 in0.0 mm 0.00 in0.0 mm
05:20 PM 26.2°F-3.2°C 20.3°F-6.5°C 78% Calm Calm -- 30.15 in1021.0 mb - 0.00 in0.0 mm 0.00 in0.0 mm
05:15 PM 26.6°F-3.0°C 20.7°F-6.3°C 78% Calm Calm -- 30.15 in1021.0 mb - 0.00 in0.0 mm 0.00 in0.0 mm
05:10 PM 26.8°F-2.9°C 20.2°F-6.6°C 76% Calm Calm -- 30.15 in1021.0 mb - 0.00 in0.0 mm 0.00 in0.0 mm
05:00 PM 27.1°F-2.7°C 21.2°F-6.0°C 78% Calm Calm -- 30.15 in1021.0 mb - 0.00 in0.0 mm 0.00 in0.0 mm
04:55 PM 27.3°F-2.6°C 20.8°F-6.2°C 76% Calm Calm -- 30.15 in1021.0 mb - 0.00 in0.0 mm 0.00 in0.0 mm
04:50 PM 27.7°F-2.4°C 20.8°F-6.2°C 75% Calm Calm -- 30.15 in1021.0 mb - 0.00 in0.0 mm 0.00 in0.0 mm
04:45 PM 27.9°F-2.3°C 21.0°F-6.1°C 75% Calm Calm 1.2 mph1.9 kmh 30.15 in1021.0 mb - 0.00 in0.0 mm 0.00 in0.0 mm
04:40 PM 27.9°F-2.3°C 21.0°F-6.1°C 75% Calm Calm -- 30.15 in1021.0 mb - 0.00 in0.0 mm 0.00 in0.0 mm
04:35 PM 28.2°F-2.1°C 21.0°F-6.1°C 74% Calm Calm -- 30.15 in1021.0 mb - 0.00 in0.0 mm 0.00 in0.0 mm
04:30 PM 28.8°F-1.8°C 21.2°F-6.0°C 73% Calm Calm -- 30.15 in1021.0 mb - 0.00 in0.0 mm 0.00 in0.0 mm
04:25 PM 29.1°F-1.6°C 20.9°F-6.2°C 71% Calm Calm -- 30.16 in1021.3 mb - 0.00 in0.0 mm 0.00 in0.0 mm
04:20 PM 29.1°F-1.6°C 20.9°F-6.2°C 71% Calm Calm -- 30.16 in1021.3 mb - 0.00 in0.0 mm 0.00 in0.0 mm
04:15 PM 29.5°F-1.4°C 21.3°F-5.9°C 71% Calm Calm -- 30.16 in1021.3 mb - 0.00 in0.0 mm 0.00 in0.0 mm
04:10 PM 29.8°F-1.2°C 21.2°F-6.0°C 70% Calm Calm -- 30.17 in1021.7 mb - 0.00 in0.0 mm 0.00 in0.0 mm
04:00 PM 31.0°F-0.6°C 20.9°F-6.2°C 66% Calm Calm -- 30.17 in1021.7 mb - 0.00 in0.0 mm 0.00 in0.0 mm
03:55 PM 31.3°F-0.4°C 21.2°F-6.0°C 66% Calm Calm -- 30.16 in1021.3 mb - 0.00 in0.0 mm 0.00 in0.0 mm
03:50 PM 31.5°F-0.3°C 21.4°F-5.9°C 66% Calm Calm -- 30.17 in1021.7 mb - 0.00 in0.0 mm 0.00 in0.0 mm
03:45 PM 31.6°F-0.2°C 21.6°F-5.8°C 66% Calm Calm -- 30.17 in1021.7 mb - 0.00 in0.0 mm 0.00 in0.0 mm
03:40 PM 31.8°F-0.1°C 21.7°F-5.7°C 66% Calm Calm -- 30.17 in1021.7 mb - 0.00 in0.0 mm 0.00 in0.0 mm
03:35 PM 32.0°F0.0°C 21.6°F-5.8°C 65% Calm Calm -- 30.17 in1021.7 mb - 0.00 in0.0 mm 0.00 in0.0 mm
03:30 PM 32.5°F0.3°C 22.1°F-5.5°C 65% Calm Calm -- 30.18 in1022.0 mb - 0.00 in0.0 mm 0.00 in0.0 mm
03:25 PM 32.5°F0.3°C 22.1°F-5.5°C 65% Calm Calm -- 30.17 in1021.7 mb - 0.00 in0.0 mm 0.00 in0.0 mm
03:20 PM 33.0°F0.6°C 21.8°F-5.7°C 63% Calm Calm 1.2 mph1.9 kmh 30.17 in1021.7 mb - 0.00 in0.0 mm 0.00 in0.0 mm
03:15 PM 33.3°F0.7°C 22.0°F-5.6°C 63% Calm Calm -- 30.17 in1021.7 mb - 0.00 in0.0 mm 0.00 in0.0 mm
03:10 PM 33.3°F0.7°C 22.0°F-5.6°C 63% Calm Calm -- 30.17 in1021.7 mb - 0.00 in0.0 mm 0.00 in0.0 mm
03:00 PM 33.8°F1.0°C 22.5°F-5.3°C 63% Calm Calm 1.2 mph1.9 kmh 30.17 in1021.7 mb - 0.00 in0.0 mm 0.00 in0.0 mm
02:55 PM 33.5°F0.8°C 21.9°F-5.6°C 62% Calm Calm 2.3 mph3.7 kmh 30.17 in1021.7 mb - 0.00 in0.0 mm 0.00 in0.0 mm
02:50 PM 33.9°F1.1°C 21.8°F-5.7°C 61% Calm Calm -- 30.17 in1021.7 mb - 0.00 in0.0 mm 0.00 in0.0 mm
02:45 PM 34.0°F1.1°C 21.9°F-5.6°C 61% Calm Calm -- 30.17 in1021.7 mb - 0.00 in0.0 mm 0.00 in0.0 mm
02:40 PM 34.2°F1.2°C 22.1°F-5.5°C 61% Calm Calm 2.3 mph3.7 kmh 30.17 in1021.7 mb - 0.00 in0.0 mm 0.00 in0.0 mm
02:35 PM 34.2°F1.2°C 22.1°F-5.5°C 61% Calm Calm 2.3 mph3.7 kmh 30.17 in1021.7 mb - 0.00 in0.0 mm 0.00 in0.0 mm
02:30 PM 34.5°F1.4°C 22.1°F-5.5°C 60% Calm Calm 1.2 mph1.9 kmh 30.17 in1021.7 mb - 0.00 in0.0 mm 0.00 in0.0 mm
02:25 PM 34.3°F1.3°C 21.8°F-5.7°C 60% Calm Calm -- 30.17 in1021.7 mb - 0.00 in0.0 mm 0.00 in0.0 mm
02:20 PM 34.8°F1.6°C 22.3°F-5.4°C 60% Calm Calm -- 30.17 in1021.7 mb - 0.00 in0.0 mm 0.00 in0.0 mm
02:15 PM 34.9°F1.6°C 22.4°F-5.3°C 60% 1.2 mph NNE1.9 kmh NNE 2.3 mph3.7 kmh 30.18 in1022.0 mb - 0.00 in0.0 mm 0.00 in0.0 mm
02:10 PM 34.7°F1.5°C 22.3°F-5.4°C 60% 1.2 mph NE1.9 kmh NE -- 30.18 in1022.0 mb - 0.00 in0.0 mm 0.00 in0.0 mm
02:00 PM 35.1°F1.7°C 22.2°F-5.4°C 59% 1.2 mph NNE1.9 kmh NNE 1.2 mph1.9 kmh 30.19 in1022.4 mb - 0.00 in0.0 mm 0.00 in0.0 mm
01:55 PM 34.9°F1.6°C 22.4°F-5.3°C 60% 1.2 mph NNE1.9 kmh NNE 2.3 mph3.7 kmh 30.18 in1022.0 mb - 0.00 in0.0 mm 0.00 in0.0 mm
01:50 PM 35.0°F1.7°C 22.1°F-5.5°C 59% 1.2 mph NNE1.9 kmh NNE 2.3 mph3.7 kmh 30.19 in1022.4 mb - 0.00 in0.0 mm 0.00 in0.0 mm
01:45 PM 34.7°F1.5°C 21.4°F-5.9°C 58% 1.2 mph N1.9 kmh N 2.3 mph3.7 kmh 30.19 in1022.4 mb - 0.00 in0.0 mm 0.00 in0.0 mm
01:40 PM 35.1°F1.7°C 21.8°F-5.7°C 58% 1.2 mph NE1.9 kmh NE 3.5 mph5.6 kmh 30.19 in1022.4 mb - 0.00 in0.0 mm 0.00 in0.0 mm
01:35 PM 35.1°F1.7°C 21.8°F-5.7°C 58% 1.2 mph NNE1.9 kmh NNE 2.3 mph3.7 kmh 30.20 in1022.7 mb - 0.00 in0.0 mm 0.00 in0.0 mm
01:30 PM 35.1°F1.7°C 20.9°F-6.2°C 56% 1.2 mph NNE1.9 kmh NNE 3.5 mph5.6 kmh 30.20 in1022.7 mb - 0.00 in0.0 mm 0.00 in0.0 mm
01:25 PM 35.1°F1.7°C 20.9°F-6.2°C 56% 1.2 mph NNE1.9 kmh NNE 1.2 mph1.9 kmh 30.20 in1022.7 mb - 0.00 in0.0 mm 0.00 in0.0 mm
01:20 PM 34.7°F1.5°C 21.4°F-5.9°C 58% 1.2 mph NNE1.9 kmh NNE 1.2 mph1.9 kmh 30.20 in1022.7 mb - 0.00 in0.0 mm 0.00 in0.0 mm
01:15 PM 35.1°F1.7°C 20.9°F-6.2°C 56% 2.3 mph N3.7 kmh N 2.3 mph3.7 kmh 30.20 in1022.7 mb - 0.00 in0.0 mm 0.00 in0.0 mm
01:10 PM 35.1°F1.7°C 21.0°F-6.1°C 56% 1.2 mph NNE1.9 kmh NNE 1.2 mph1.9 kmh 30.21 in1023.0 mb - 0.00 in0.0 mm 0.00 in0.0 mm
01:00 PM 34.7°F1.5°C 21.4°F-5.9°C 58% 1.2 mph NNE1.9 kmh NNE 1.2 mph1.9 kmh 30.21 in1023.0 mb - 0.00 in0.0 mm 0.00 in0.0 mm
12:55 PM 35.1°F1.7°C 20.9°F-6.2°C 56% 1.2 mph NNE1.9 kmh NNE 2.3 mph3.7 kmh 30.21 in1023.0 mb - 0.00 in0.0 mm 0.00 in0.0 mm
12:50 PM 33.6°F0.9°C 20.8°F-6.2°C 59% 1.2 mph NNE1.9 kmh NNE -- 30.21 in1023.0 mb - 0.00 in0.0 mm 0.00 in0.0 mm
12:45 PM 34.1°F1.2°C 21.3°F-5.9°C 59% 1.2 mph NNE1.9 kmh NNE 2.3 mph3.7 kmh 30.21 in1023.0 mb - 0.00 in0.0 mm 0.00 in0.0 mm
12:40 PM 34.2°F1.2°C 21.3°F-5.9°C 59% Calm Calm 2.3 mph3.7 kmh 30.22 in1023.4 mb - 0.00 in0.0 mm 0.00 in0.0 mm
12:35 PM 33.3°F0.7°C 20.5°F-6.4°C 59% Calm Calm -- 30.22 in1023.4 mb - 0.00 in0.0 mm 0.00 in0.0 mm
12:30 PM 33.4°F0.8°C 20.6°F-6.3°C 59% 1.2 mph NNE1.9 kmh NNE 1.2 mph1.9 kmh 30.22 in1023.4 mb - 0.00 in0.0 mm 0.00 in0.0 mm
12:25 PM 33.0°F0.6°C 21.0°F-6.1°C 61% Calm Calm -- 30.22 in1023.4 mb - 0.00 in0.0 mm 0.00 in0.0 mm
12:20 PM 32.5°F0.3°C 20.5°F-6.4°C 61% Calm Calm -- 30.23 in1023.7 mb - 0.00 in0.0 mm 0.00 in0.0 mm
12:15 PM 31.5°F-0.3°C 19.6°F-6.9°C 61% 1.2 mph NNE1.9 kmh NNE 3.5 mph5.6 kmh 30.23 in1023.7 mb - 0.00 in0.0 mm 0.00 in0.0 mm
12:10 PM 31.4°F-0.3°C 19.5°F-6.9°C 61% 1.2 mph NNE1.9 kmh NNE 4.6 mph7.4 kmh 30.24 in1024.0 mb - 0.00 in0.0 mm 0.00 in0.0 mm
12:00 PM 31.5°F-0.3°C 20.3°F-6.5°C 63% 1.2 mph NNE1.9 kmh NNE 2.3 mph3.7 kmh 30.24 in1024.0 mb - 0.00 in0.0 mm 0.00 in0.0 mm
11:55 AM 31.3°F-0.4°C 20.1°F-6.6°C 63% 1.2 mph NNE1.9 kmh NNE 3.5 mph5.6 kmh 30.24 in1024.0 mb - 0.00 in0.0 mm 0.00 in0.0 mm
11:50 AM 30.7°F-0.7°C 19.6°F-6.9°C 63% 1.2 mph NNE1.9 kmh NNE -- 30.25 in1024.4 mb - 0.00 in0.0 mm 0.00 in0.0 mm
11:45 AM 30.7°F-0.7°C 19.6°F-6.9°C 63% 2.3 mph NNE3.7 kmh NNE 3.5 mph5.6 kmh 30.24 in1024.0 mb - 0.00 in0.0 mm 0.00 in0.0 mm
11:40 AM 31.3°F-0.4°C 19.4°F-7.0°C 61% Calm Calm 3.5 mph5.6 kmh 30.25 in1024.4 mb - 0.00 in0.0 mm 0.00 in0.0 mm
11:35 AM 30.7°F-0.7°C 18.9°F-7.3°C 61% 1.2 mph N1.9 kmh N 2.3 mph3.7 kmh 30.24 in1024.0 mb - 0.00 in0.0 mm 0.00 in0.0 mm
11:30 AM 31.3°F-0.4°C 19.4°F-7.0°C 61% Calm Calm 1.2 mph1.9 kmh 30.24 in1024.0 mb - 0.00 in0.0 mm 0.00 in0.0 mm
11:25 AM 31.1°F-0.5°C 19.2°F-7.1°C 61% Calm Calm 1.2 mph1.9 kmh 30.25 in1024.4 mb - 0.00 in0.0 mm 0.00 in0.0 mm
11:20 AM 30.7°F-0.7°C 19.6°F-6.9°C 63% Calm Calm -- 30.25 in1024.4 mb - 0.00 in0.0 mm 0.00 in0.0 mm
11:15 AM 30.7°F-0.7°C 19.6°F-6.9°C 63% 1.2 mph NNE1.9 kmh NNE 2.3 mph3.7 kmh 30.25 in1024.4 mb - 0.00 in0.0 mm 0.00 in0.0 mm
11:10 AM 31.1°F-0.5°C 19.2°F-7.1°C 61% Calm Calm 1.2 mph1.9 kmh 30.25 in1024.4 mb - 0.00 in0.0 mm 0.00 in0.0 mm
11:00 AM 30.4°F-0.9°C 19.3°F-7.1°C 63% Calm Calm 1.2 mph1.9 kmh 30.26 in1024.7 mb - 0.00 in0.0 mm 0.00 in0.0 mm
10:55 AM 30.4°F-0.9°C 19.6°F-6.9°C 64% Calm Calm 1.2 mph1.9 kmh 30.26 in1024.7 mb - 0.00 in0.0 mm 0.00 in0.0 mm
10:50 AM 30.0°F-1.1°C 18.9°F-7.3°C 63% Calm Calm 1.2 mph1.9 kmh 30.26 in1024.7 mb - 0.00 in0.0 mm 0.00 in0.0 mm
10:45 AM 29.2°F-1.6°C 18.9°F-7.3°C 65% Calm Calm -- 30.26 in1024.7 mb - 0.00 in0.0 mm 0.00 in0.0 mm
10:40 AM 28.8°F-1.8°C 18.5°F-7.5°C 65% Calm Calm -- 30.26 in1024.7 mb - 0.00 in0.0 mm 0.00 in0.0 mm
10:35 AM 28.7°F-1.8°C 19.8°F-6.8°C 69% Calm Calm -- 30.26 in1024.7 mb - 0.00 in0.0 mm 0.00 in0.0 mm
10:30 AM 27.5°F-2.5°C 18.4°F-7.6°C 68% Calm Calm -- 30.26 in1024.7 mb - 0.00 in0.0 mm 0.00 in0.0 mm
10:25 AM 26.2°F-3.2°C 17.1°F-8.3°C 68% 1.2 mph NNE1.9 kmh NNE 1.2 mph1.9 kmh 30.26 in1024.7 mb - 0.00 in0.0 mm 0.00 in0.0 mm
10:20 AM 26.2°F-3.2°C 19.4°F-7.0°C 75% Calm Calm -- 30.27 in1025.1 mb - 0.00 in0.0 mm 0.00 in0.0 mm
10:15 AM 26.2°F-3.2°C 17.8°F-7.9°C 70% Calm Calm -- 30.27 in1025.1 mb - 0.00 in0.0 mm 0.00 in0.0 mm
10:10 AM 25.1°F-3.8°C 16.7°F-8.5°C 70% Calm Calm -- 30.28 in1025.4 mb - 0.00 in0.0 mm 0.00 in0.0 mm
10:00 AM 22.9°F-5.1°C 16.2°F-8.8°C 75% Calm Calm -- 30.28 in1025.4 mb - 0.00 in0.0 mm 0.00 in0.0 mm
09:55 AM 21.9°F-5.6°C 16.4°F-8.7°C 79% Calm Calm -- 30.29 in1025.7 mb - 0.00 in0.0 mm 0.00 in0.0 mm
09:50 AM 20.1°F-6.6°C 16.9°F-8.4°C 87% Calm Calm -- 30.28 in1025.4 mb - 0.00 in0.0 mm 0.00 in0.0 mm
09:45 AM 19.8°F-6.8°C 16.0°F-8.9°C 85% Calm Calm -- 30.29 in1025.7 mb - 0.00 in0.0 mm 0.00 in0.0 mm
09:40 AM 18.8°F-7.3°C 15.3°F-9.3°C 86% Calm Calm -- 30.29 in1025.7 mb - 0.00 in0.0 mm 0.00 in0.0 mm
09:35 AM 17.4°F-8.1°C 14.5°F-9.7°C 88% Calm Calm -- 30.29 in1025.7 mb - 0.00 in0.0 mm 0.00 in0.0 mm
09:30 AM 16.9°F-8.4°C 14.0°F-10.0°C 88% Calm Calm -- 30.29 in1025.7 mb - 0.00 in0.0 mm 0.00 in0.0 mm
09:25 AM 16.2°F-8.8°C 13.2°F-10.4°C 88% Calm Calm -- 30.29 in1025.7 mb - 0.00 in0.0 mm 0.00 in0.0 mm
09:20 AM 15.8°F-9.0°C 12.9°F-10.6°C 88% Calm Calm -- 30.28 in1025.4 mb - 0.00 in0.0 mm 0.00 in0.0 mm
09:15 AM 15.1°F-9.4°C 11.6°F-11.3°C 86% Calm Calm -- 30.28 in1025.4 mb - 0.00 in0.0 mm 0.00 in0.0 mm
09:10 AM 14.5°F-9.7°C 12.3°F-10.9°C 91% Calm Calm -- 30.28 in1025.4 mb - 0.00 in0.0 mm 0.00 in0.0 mm
09:00 AM 12.7°F-10.7°C 10.6°F-11.9°C 91% Calm Calm -- 30.28 in1025.4 mb - 0.00 in0.0 mm 0.00 in0.0 mm
08:55 AM 12.0°F-11.1°C 9.9°F-12.3°C 91% Calm Calm -- 30.28 in1025.4 mb - 0.00 in0.0 mm 0.00 in0.0 mm
08:50 AM 11.5°F-11.4°C 9.4°F-12.6°C 91% Calm Calm -- 30.28 in1025.4 mb - 0.00 in0.0 mm 0.00 in0.0 mm
08:45 AM 10.8°F-11.8°C 8.7°F-12.9°C 91% Calm Calm -- 30.28 in1025.4 mb - 0.00 in0.0 mm 0.00 in0.0 mm
08:40 AM 10.0°F-12.2°C 7.9°F-13.4°C 91% Calm Calm -- 30.28 in1025.4 mb - 0.00 in0.0 mm 0.00 in0.0 mm
08:35 AM 9.9°F-12.3°C 8.2°F-13.2°C 93% Calm Calm -- 30.28 in1025.4 mb - 0.00 in0.0 mm 0.00 in0.0 mm
08:30 AM 9.6°F-12.4°C 7.9°F-13.4°C 93% Calm Calm -- 30.28 in1025.4 mb - 0.00 in0.0 mm 0.00 in0.0 mm
08:25 AM 9.5°F-12.5°C 7.8°F-13.4°C 93% Calm Calm -- 30.29 in1025.7 mb - 0.00 in0.0 mm 0.00 in0.0 mm
08:20 AM 9.1°F-12.7°C 7.5°F-13.6°C 93% Calm Calm -- 30.29 in1025.7 mb - 0.00 in0.0 mm 0.00 in0.0 mm
08:15 AM 8.8°F-12.9°C 7.1°F-13.8°C 93% Calm Calm -- 30.29 in1025.7 mb - 0.00 in0.0 mm 0.00 in0.0 mm
08:10 AM 8.6°F-13.0°C 7.0°F-13.9°C 93% Calm Calm -- 30.28 in1025.4 mb - 0.00 in0.0 mm 0.00 in0.0 mm
08:00 AM 8.1°F-13.3°C 6.5°F-14.2°C 93% Calm Calm -- 30.27 in1025.1 mb - 0.00 in0.0 mm 0.00 in0.0 mm
07:55 AM 7.5°F-13.6°C 5.9°F-14.5°C 93% Calm Calm -- 30.27 in1025.1 mb - 0.00 in0.0 mm 0.00 in0.0 mm
07:50 AM 7.5°F-13.6°C 5.9°F-14.5°C 93% Calm Calm -- 30.27 in1025.1 mb - 0.00 in0.0 mm 0.00 in0.0 mm
07:45 AM 7.5°F-13.6°C 5.9°F-14.5°C 93% Calm Calm -- 30.27 in1025.1 mb - 0.00 in0.0 mm 0.00 in0.0 mm
07:40 AM 7.5°F-13.6°C 5.9°F-14.5°C 93% Calm Calm -- 30.27 in1025.1 mb - 0.00 in0.0 mm 0.00 in0.0 mm
07:35 AM 7.5°F-13.6°C 6.4°F-14.2°C 95% Calm Calm -- 30.27 in1025.1 mb - 0.00 in0.0 mm 0.00 in0.0 mm
07:30 AM 7.9°F-13.4°C 6.7°F-14.1°C 95% Calm Calm -- 30.27 in1025.1 mb - 0.00 in0.0 mm 0.00 in0.0 mm
07:25 AM 7.9°F-13.4°C 6.7°F-14.1°C 95% Calm Calm -- 30.27 in1025.1 mb - 0.00 in0.0 mm 0.00 in0.0 mm
07:20 AM 7.9°F-13.4°C 6.7°F-14.1°C 95% Calm Calm -- 30.27 in1025.1 mb - 0.00 in0.0 mm 0.00 in0.0 mm
07:15 AM 7.9°F-13.4°C 7.0°F-13.9°C 96% Calm Calm -- 30.26 in1024.7 mb - 0.00 in0.0 mm 0.00 in0.0 mm
07:10 AM 7.9°F-13.4°C 7.0°F-13.9°C 96% Calm Calm -- 30.26 in1024.7 mb - 0.00 in0.0 mm 0.00 in0.0 mm
07:00 AM 7.5°F-13.6°C 6.6°F-14.1°C 96% Calm Calm -- 30.26 in1024.7 mb - 0.00 in0.0 mm 0.00 in0.0 mm
06:55 AM 7.5°F-13.6°C 6.6°F-14.1°C 96% Calm Calm -- 30.27 in1025.1 mb - 0.00 in0.0 mm 0.00 in0.0 mm
06:50 AM 7.5°F-13.6°C 6.6°F-14.1°C 96% Calm Calm -- 30.26 in1024.7 mb - 0.00 in0.0 mm 0.00 in0.0 mm
06:45 AM 7.5°F-13.6°C 6.6°F-14.1°C 96% Calm Calm -- 30.26 in1024.7 mb - 0.00 in0.0 mm 0.00 in0.0 mm
06:40 AM 7.3°F-13.7°C 6.4°F-14.2°C 96% Calm Calm -- 30.26 in1024.7 mb - 0.00 in0.0 mm 0.00 in0.0 mm
06:35 AM 7.2°F-13.8°C 6.3°F-14.3°C 96% Calm Calm -- 30.27 in1025.1 mb - 0.00 in0.0 mm 0.00 in0.0 mm
06:30 AM 6.8°F-14.0°C 5.9°F-14.5°C 96% Calm Calm -- 30.26 in1024.7 mb - 0.00 in0.0 mm 0.00 in0.0 mm
06:25 AM 6.4°F-14.2°C 5.5°F-14.7°C 96% Calm Calm -- 30.26 in1024.7 mb - 0.00 in0.0 mm 0.00 in0.0 mm
06:20 AM 6.1°F-14.4°C 5.2°F-14.9°C 96% Calm Calm -- 30.27 in1025.1 mb - 0.00 in0.0 mm 0.00 in0.0 mm
06:15 AM 5.9°F-14.5°C 5.0°F-15.0°C 96% Calm Calm -- 30.27 in1025.1 mb - 0.00 in0.0 mm 0.00 in0.0 mm
06:10 AM 5.5°F-14.7°C 4.6°F-15.2°C 96% Calm Calm -- 30.27 in1025.1 mb - 0.00 in0.0 mm 0.00 in0.0 mm
06:00 AM 5.4°F-14.8°C 4.2°F-15.4°C 95% Calm Calm -- 30.26 in1024.7 mb - 0.00 in0.0 mm 0.00 in0.0 mm
05:55 AM 5.4°F-14.8°C 4.2°F-15.4°C 95% Calm Calm -- 30.26 in1024.7 mb - 0.00 in0.0 mm 0.00 in0.0 mm
05:50 AM 5.4°F-14.8°C 4.2°F-15.4°C 95% Calm Calm -- 30.26 in1024.7 mb - 0.00 in0.0 mm 0.00 in0.0 mm
05:45 AM 5.4°F-14.8°C 4.2°F-15.4°C 95% Calm Calm -- 30.26 in1024.7 mb - 0.00 in0.0 mm 0.00 in0.0 mm
05:40 AM 5.2°F-14.9°C 4.1°F-15.5°C 95% Calm Calm -- 30.26 in1024.7 mb - 0.00 in0.0 mm 0.00 in0.0 mm
05:35 AM 5.1°F-14.9°C 4.0°F-15.6°C 95% Calm Calm -- 30.26 in1024.7 mb - 0.00 in0.0 mm 0.00 in0.0 mm
05:30 AM 5.0°F-15.0°C 3.9°F-15.6°C 95% Calm Calm -- 30.26 in1024.7 mb - 0.00 in0.0 mm 0.00 in0.0 mm
05:25 AM 5.0°F-15.0°C 3.9°F-15.6°C 95% Calm Calm -- 30.26 in1024.7 mb - 0.00 in0.0 mm 0.00 in0.0 mm
05:20 AM 5.0°F-15.0°C 3.9°F-15.6°C 95% Calm Calm -- 30.26 in1024.7 mb - 0.00 in0.0 mm 0.00 in0.0 mm
05:15 AM 5.0°F-15.0°C 4.1°F-15.5°C 96% Calm Calm -- 30.26 in1024.7 mb - 0.00 in0.0 mm 0.00 in0.0 mm
05:10 AM 5.0°F-15.0°C 4.1°F-15.5°C 96% Calm Calm -- 30.26 in1024.7 mb - 0.00 in0.0 mm 0.00 in0.0 mm
05:00 AM 5.2°F-14.9°C 4.3°F-15.4°C 96% Calm Calm -- 30.25 in1024.4 mb - 0.00 in0.0 mm 0.00 in0.0 mm
04:55 AM 5.2°F-14.9°C 4.3°F-15.4°C 96% Calm Calm -- 30.25 in1024.4 mb - 0.00 in0.0 mm 0.00 in0.0 mm
04:50 AM 5.2°F-14.9°C 4.3°F-15.4°C 96% Calm Calm -- 30.25 in1024.4 mb - 0.00 in0.0 mm 0.00 in0.0 mm
04:45 AM 5.4°F-14.8°C 4.5°F-15.3°C 96% Calm Calm -- 30.25 in1024.4 mb - 0.00 in0.0 mm 0.00 in0.0 mm
04:40 AM 5.5°F-14.7°C 4.6°F-15.2°C 96% Calm Calm -- 30.25 in1024.4 mb - 0.00 in0.0 mm 0.00 in0.0 mm
04:35 AM 5.5°F-14.7°C 4.6°F-15.2°C 96% Calm Calm -- 30.25 in1024.4 mb - 0.00 in0.0 mm 0.00 in0.0 mm
04:30 AM 5.5°F-14.7°C 4.6°F-15.2°C 96% Calm Calm -- 30.26 in1024.7 mb - 0.00 in0.0 mm 0.00 in0.0 mm
04:25 AM 5.5°F-14.7°C 4.6°F-15.2°C 96% Calm Calm -- 30.25 in1024.4 mb - 0.00 in0.0 mm 0.00 in0.0 mm
04:20 AM 5.5°F-14.7°C 4.6°F-15.2°C 96% Calm Calm -- 30.25 in1024.4 mb - 0.00 in0.0 mm 0.00 in0.0 mm
04:15 AM 5.5°F-14.7°C 4.6°F-15.2°C 96% Calm Calm -- 30.25 in1024.4 mb - 0.00 in0.0 mm 0.00 in0.0 mm
04:10 AM 5.5°F-14.7°C 4.6°F-15.2°C 96% Calm Calm -- 30.25 in1024.4 mb - 0.00 in0.0 mm 0.00 in0.0 mm
04:00 AM 5.5°F-14.7°C 4.6°F-15.2°C 96% Calm Calm -- 30.25 in1024.4 mb - 0.00 in0.0 mm 0.00 in0.0 mm
03:55 AM 5.5°F-14.7°C 4.6°F-15.2°C 96% Calm Calm -- 30.25 in1024.4 mb - 0.00 in0.0 mm 0.00 in0.0 mm
03:50 AM 5.9°F-14.5°C 5.0°F-15.0°C 96% Calm Calm -- 30.25 in1024.4 mb - 0.00 in0.0 mm 0.00 in0.0 mm
03:45 AM 6.1°F-14.4°C 5.2°F-14.9°C 96% Calm Calm -- 30.25 in1024.4 mb - 0.00 in0.0 mm 0.00 in0.0 mm
03:40 AM 6.1°F-14.4°C 5.2°F-14.9°C 96% Calm Calm -- 30.25 in1024.4 mb - 0.00 in0.0 mm 0.00 in0.0 mm
03:35 AM 6.1°F-14.4°C 5.2°F-14.9°C 96% Calm Calm -- 30.26 in1024.7 mb - 0.00 in0.0 mm 0.00 in0.0 mm
03:30 AM 6.1°F-14.4°C 5.2°F-14.9°C 96% Calm Calm -- 30.25 in1024.4 mb - 0.00 in0.0 mm 0.00 in0.0 mm
03:25 AM 6.1°F-14.4°C 5.2°F-14.9°C 96% Calm Calm -- 30.26 in1024.7 mb - 0.00 in0.0 mm 0.00 in0.0 mm
03:20 AM 6.1°F-14.4°C 5.2°F-14.9°C 96% Calm Calm -- 30.26 in1024.7 mb - 0.00 in0.0 mm 0.00 in0.0 mm
03:15 AM 6.1°F-14.4°C 5.2°F-14.9°C 96% Calm Calm -- 30.26 in1024.7 mb - 0.00 in0.0 mm 0.00 in0.0 mm
03:10 AM 6.1°F-14.4°C 5.0°F-15.0°C 95% Calm Calm -- 30.26 in1024.7 mb - 0.00 in0.0 mm 0.00 in0.0 mm
03:00 AM 6.1°F-14.4°C 4.5°F-15.3°C 93% Calm Calm -- 30.26 in1024.7 mb - 0.00 in0.0 mm 0.00 in0.0 mm
02:55 AM 6.1°F-14.4°C 4.5°F-15.3°C 93% Calm Calm -- 30.25 in1024.4 mb - 0.00 in0.0 mm 0.00 in0.0 mm
02:50 AM 6.3°F-14.3°C 4.7°F-15.2°C 93% Calm Calm -- 30.26 in1024.7 mb - 0.00 in0.0 mm 0.00 in0.0 mm
02:45 AM 6.3°F-14.3°C 4.7°F-15.2°C 93% Calm Calm -- 30.26 in1024.7 mb - 0.00 in0.0 mm 0.00 in0.0 mm
02:40 AM 6.3°F-14.3°C 4.7°F-15.2°C 93% Calm Calm -- 30.25 in1024.4 mb - 0.00 in0.0 mm 0.00 in0.0 mm
02:35 AM 6.4°F-14.2°C 4.8°F-15.1°C 93% Calm Calm -- 30.25 in1024.4 mb - 0.00 in0.0 mm 0.00 in0.0 mm
02:30 AM 6.8°F-14.0°C 5.2°F-14.9°C 93% Calm Calm -- 30.26 in1024.7 mb - 0.00 in0.0 mm 0.00 in0.0 mm
02:25 AM 7.0°F-13.9°C 5.4°F-14.8°C 93% Calm Calm -- 30.25 in1024.4 mb - 0.00 in0.0 mm 0.00 in0.0 mm
02:20 AM 7.2°F-13.8°C 5.6°F-14.7°C 93% Calm Calm -- 30.25 in1024.4 mb - 0.00 in0.0 mm 0.00 in0.0 mm
02:15 AM 7.3°F-13.7°C 5.3°F-14.8°C 91% Calm Calm -- 30.25 in1024.4 mb - 0.00 in0.0 mm 0.00 in0.0 mm
02:10 AM 7.5°F-13.6°C 5.4°F-14.8°C 91% Calm Calm -- 30.25 in1024.4 mb - 0.00 in0.0 mm 0.00 in0.0 mm
02:00 AM 8.1°F-13.3°C 6.0°F-14.4°C 91% Calm Calm -- 30.25 in1024.4 mb - 0.00 in0.0 mm 0.00 in0.0 mm
01:55 AM 8.6°F-13.0°C 6.5°F-14.2°C 91% Calm Calm -- 30.24 in1024.0 mb - 0.00 in0.0 mm 0.00 in0.0 mm
01:50 AM 8.8°F-12.9°C 6.7°F-14.1°C 91% Calm Calm -- 30.24 in1024.0 mb - 0.00 in0.0 mm 0.00 in0.0 mm
01:45 AM 9.1°F-12.7°C 7.0°F-13.9°C 91% Calm Calm -- 30.24 in1024.0 mb - 0.00 in0.0 mm 0.00 in0.0 mm
01:40 AM 9.4°F-12.6°C 7.3°F-13.7°C 91% Calm Calm -- 30.24 in1024.0 mb - 0.00 in0.0 mm 0.00 in0.0 mm
01:35 AM 9.7°F-12.4°C 7.6°F-13.6°C 91% Calm Calm -- 30.24 in1024.0 mb - 0.00 in0.0 mm 0.00 in0.0 mm
01:30 AM 9.9°F-12.3°C 7.8°F-13.4°C 91% Calm Calm -- 30.23 in1023.7 mb - 0.00 in0.0 mm 0.00 in0.0 mm
01:25 AM 10.0°F-12.2°C 7.9°F-13.4°C 91% Calm Calm -- 30.23 in1023.7 mb - 0.00 in0.0 mm 0.00 in0.0 mm
01:20 AM 10.0°F-12.2°C 7.7°F-13.5°C 90% Calm Calm -- 30.24 in1024.0 mb - 0.00 in0.0 mm 0.00 in0.0 mm
01:15 AM 10.5°F-11.9°C 8.1°F-13.3°C 90% Calm Calm -- 30.22 in1023.4 mb - 0.00 in0.0 mm 0.00 in0.0 mm
01:10 AM 10.8°F-11.8°C 7.9°F-13.4°C 88% Calm Calm -- 30.23 in1023.7 mb - 0.00 in0.0 mm 0.00 in0.0 mm
01:00 AM 11.5°F-11.4°C 8.6°F-13.0°C 88% Calm Calm -- 30.23 in1023.7 mb - 0.00 in0.0 mm 0.00 in0.0 mm
12:55 AM 11.7°F-11.3°C 8.8°F-12.9°C 88% Calm Calm -- 30.23 in1023.7 mb - 0.00 in0.0 mm 0.00 in0.0 mm
12:50 AM 12.0°F-11.1°C 9.1°F-12.7°C 88% Calm Calm -- 30.23 in1023.7 mb - 0.00 in0.0 mm 0.00 in0.0 mm
12:45 AM 12.2°F-11.0°C 9.1°F-12.7°C 87% Calm Calm 1.2 mph1.9 kmh 30.23 in1023.7 mb - 0.00 in0.0 mm 0.00 in0.0 mm
12:40 AM 12.4°F-10.9°C 9.0°F-12.8°C 86% Calm Calm -- 30.23 in1023.7 mb - 0.00 in0.0 mm 0.00 in0.0 mm
12:35 AM 12.6°F-10.8°C 9.2°F-12.7°C 86% Calm Calm -- 30.22 in1023.4 mb - 0.00 in0.0 mm 0.00 in0.0 mm
12:30 AM 13.0°F-10.6°C 9.6°F-12.4°C 86% Calm Calm -- 30.23 in1023.7 mb - 0.00 in0.0 mm 0.00 in0.0 mm
12:25 AM 13.1°F-10.5°C 9.7°F-12.4°C 86% Calm Calm -- 30.23 in1023.7 mb - 0.00 in0.0 mm 0.00 in0.0 mm
12:20 AM 13.3°F-10.4°C 9.6°F-12.4°C 85% Calm Calm -- 30.23 in1023.7 mb - 0.00 in0.0 mm 0.00 in0.0 mm
12:15 AM 13.3°F-10.4°C 9.1°F-12.7°C 83% Calm Calm -- 30.23 in1023.7 mb - 0.00 in0.0 mm 0.00 in0.0 mm
12:10 AM 13.6°F-10.2°C 9.4°F-12.6°C 83% Calm Calm 2.3 mph3.7 kmh 30.23 in1023.7 mb - 0.00 in0.0 mm 0.00 in0.0 mm
12:00 AM 14.2°F-9.9°C 9.4°F-12.6°C 81% Calm Calm -- 30.23 in1023.7 mb - 0.00 in0.0 mm 0.00 in0.0 mm